Time;durP1;ratioP1;P1;durP2;ratioP2;P2;SDS_P1;SDS_P2;PMS_P1;PMS_P2;Temp;Humidity;BMP_temperature;BMP_pressure;BME280_temperature;BME280_humidity;BME280_pressure;Samples;Min_cycle;Max_cycle;Signal;HPM_P1;HPM_P2
2022/05/14 00:00:49;;;;;;;7.22;2.10;;;;;;;;;;5043635;28;20223;-61
2022/05/14 00:03:14;;;;;;;7.60;2.10;;;;;;;;;;5033463;28;20277;-61
2022/05/14 00:05:41;;;;;;;9.95;2.60;;;;;;;;;;5017703;28;20516;-61
2022/05/14 00:08:06;;;;;;;6.60;2.30;;;;;;;;;;5016016;28;20445;-61
2022/05/14 00:10:32;;;;;;;8.60;2.60;;;;;;;;;;5035866;28;20211;-61
2022/05/14 00:13:04;;;;;;;8.27;2.47;;;;;;;;;;5041220;28;20572;-61
2022/05/14 00:15:30;;;;;;;7.90;2.30;;;;;;;;;;5043477;28;20207;-61
2022/05/14 00:17:55;;;;;;;7.20;2.50;;;;;;;;;;5044001;28;20223;-61
2022/05/14 00:20:21;;;;;;;12.77;2.63;;;;;;;;;;5042647;28;20211;-61
2022/05/14 00:22:47;;;;;;;9.77;3.17;;;;;;;;;;5043978;28;20215;-61
2022/05/14 00:25:12;;;;;;;9.52;3.22;;;;;;;;;;5042476;28;20210;-61
2022/05/14 00:27:43;;;;;;;11.77;4.07;;;;;;;;;;5038664;28;20762;-61
2022/05/14 00:30:09;;;;;;;10.48;3.22;;;;;;;;;;5035620;28;20302;-61
2022/05/14 00:32:36;;;;;;;7.78;2.70;;;;;;;;;;5033714;28;20211;-61
2022/05/14 00:35:01;;;;;;;9.95;3.03;;;;;;;;;;5039681;28;20206;-62
2022/05/14 00:37:27;;;;;;;10.35;2.90;;;;;;;;;;5032531;28;20762;-61
2022/05/14 00:39:52;;;;;;;14.90;2.75;;;;;;;;;;5022943;28;20679;-61
2022/05/14 00:42:18;;;;;;;8.20;2.95;;;;;;;;;;5042267;28;20211;-61
2022/05/14 00:44:43;;;;;;;7.70;2.53;;;;;;;;;;5031722;28;20208;-61
2022/05/14 00:47:09;;;;;;;12.02;2.50;;;;;;;;;;5004760;28;20207;-61
2022/05/14 00:49:35;;;;;;;9.00;2.70;;;;;;;;;;5003770;28;20265;-61
2022/05/14 00:52:00;;;;;;;10.82;2.92;;;;;;;;;;5016583;28;20208;-61
2022/05/14 00:54:27;;;;;;;9.90;3.20;;;;;;;;;;4977930;28;20611;-61
2022/05/14 00:56:53;;;;;;;10.05;3.10;;;;;;;;;;4998890;28;20599;-61
2022/05/14 00:59:20;;;;;;;18.42;4.32;;;;;;;;;;5022094;28;20236;-61
2022/05/14 01:01:45;;;;;;;13.80;3.97;;;;;;;;;;5022454;28;20276;-61
2022/05/14 01:04:11;;;;;;;9.02;3.00;;;;;;;;;;5022731;28;20204;-61
2022/05/14 01:06:36;;;;;;;9.65;3.20;;;;;;;;;;5023084;28;20299;-61
2022/05/14 01:09:04;;;;;;;12.20;3.05;;;;;;;;;;5021721;28;20318;-61
2022/05/14 01:11:30;;;;;;;9.35;3.58;;;;;;;;;;5022294;28;20683;-61
2022/05/14 01:13:55;;;;;;;10.90;3.30;;;;;;;;;;4998313;28;20344;-61
2022/05/14 01:16:21;;;;;;;14.70;3.40;;;;;;;;;;5014016;28;20211;-61
2022/05/14 01:18:46;;;;;;;7.75;2.88;;;;;;;;;;5014788;28;20817;-61
2022/05/14 01:21:29;;;;;;;10.77;3.65;;;;;;;;;;5021495;28;20212;-61
2022/05/14 01:26:41;;;;;;;9.15;3.33;;;;;;;;;;5007470;28;20293;-61
2022/05/14 01:29:11;;;;;;;12.02;3.38;;;;;;;;;;5020888;28;20278;-61
2022/05/14 01:31:37;;;;;;;9.93;3.70;;;;;;;;;;5022664;28;20212;-61
2022/05/14 01:34:05;;;;;;;10.55;3.75;;;;;;;;;;5005373;28;20216;-61
2022/05/14 01:36:30;;;;;;;11.40;3.90;;;;;;;;;;5011721;28;20861;-61
2022/05/14 01:38:56;;;;;;;13.43;4.05;;;;;;;;;;4994728;28;20220;-61
2022/05/14 01:41:21;;;;;;;12.52;3.58;;;;;;;;;;4994990;28;20219;-61
2022/05/14 01:43:47;;;;;;;12.25;3.35;;;;;;;;;;5015045;28;20250;-61
2022/05/14 01:46:12;;;;;;;8.98;3.10;;;;;;;;;;5002891;28;21029;-61
2022/05/14 01:48:37;;;;;;;8.32;2.92;;;;;;;;;;5002591;28;20217;-61
2022/05/14 01:51:02;;;;;;;8.48;3.22;;;;;;;;;;5001582;28;20232;-61
2022/05/14 01:53:28;;;;;;;10.98;3.15;;;;;;;;;;5003276;28;20286;-61
2022/05/14 01:55:53;;;;;;;9.93;3.03;;;;;;;;;;5013996;28;20698;-61
2022/05/14 01:58:36;;;;;;;8.60;2.90;;;;;;;;;;4997129;28;20430;-61
2022/05/14 02:01:06;;;;;;;11.68;3.05;;;;;;;;;;5014169;28;20236;-61
2022/05/14 02:03:31;;;;;;;12.07;3.22;;;;;;;;;;5013828;28;20207;-62
2022/05/14 02:05:56;;;;;;;8.00;2.95;;;;;;;;;;5018590;28;20215;-61
2022/05/14 02:08:22;;;;;;;9.82;3.38;;;;;;;;;;5021029;28;20228;-61
2022/05/14 02:10:47;;;;;;;17.17;3.60;;;;;;;;;;5021313;28;20215;-61
2022/05/14 02:13:12;;;;;;;11.95;3.55;;;;;;;;;;5021089;28;20235;-62
2022/05/14 02:15:38;;;;;;;10.75;3.05;;;;;;;;;;5021784;28;20744;-61
2022/05/14 02:18:04;;;;;;;9.25;3.10;;;;;;;;;;5020697;28;20208;-61
2022/05/14 02:20:29;;;;;;;10.23;3.42;;;;;;;;;;5018275;28;20265;-61
2022/05/14 02:22:54;;;;;;;12.45;3.45;;;;;;;;;;5014695;28;20219;-61
2022/05/14 02:25:20;;;;;;;8.95;3.00;;;;;;;;;;5012807;28;20605;-61
2022/05/14 02:27:45;;;;;;;11.20;3.00;;;;;;;;;;5016174;28;20330;-61
2022/05/14 02:30:11;;;;;;;10.48;3.40;;;;;;;;;;5020991;28;20694;-61
2022/05/14 02:32:38;;;;;;;12.43;3.45;;;;;;;;;;5015499;28;20216;-61
2022/05/14 02:35:03;;;;;;;8.50;3.42;;;;;;;;;;5001514;28;20288;-61
2022/05/14 02:37:29;;;;;;;10.05;3.33;;;;;;;;;;5002034;28;20212;-62
2022/05/14 02:39:54;;;;;;;12.18;3.83;;;;;;;;;;5001239;28;20220;-61
2022/05/14 02:42:19;;;;;;;15.40;3.60;;;;;;;;;;5001435;28;20212;-61
2022/05/14 02:44:44;;;;;;;13.63;3.70;;;;;;;;;;4995096;28;20734;-62
2022/05/14 02:47:10;;;;;;;11.70;3.35;;;;;;;;;;4980135;28;20208;-61
2022/05/14 02:49:35;;;;;;;10.35;3.55;;;;;;;;;;4994393;28;20656;-61
2022/05/14 02:52:00;;;;;;;12.18;3.30;;;;;;;;;;5001331;28;20311;-61
2022/05/14 02:54:26;;;;;;;12.38;3.60;;;;;;;;;;5001419;28;20538;-61
2022/05/14 02:56:51;;;;;;;11.25;4.00;;;;;;;;;;5005190;28;20208;-61
2022/05/14 02:59:16;;;;;;;8.60;3.60;;;;;;;;;;5024265;28;20686;-61
2022/05/14 03:01:47;;;;;;;11.88;3.58;;;;;;;;;;5024856;28;20211;-61
2022/05/14 03:04:13;;;;;;;14.07;3.83;;;;;;;;;;5024666;28;20219;-61
2022/05/14 03:06:39;;;;;;;12.90;4.10;;;;;;;;;;5019615;28;20215;-62
2022/05/14 03:09:04;;;;;;;9.27;3.92;;;;;;;;;;5016275;28;20227;-61
2022/05/14 03:11:31;;;;;;;13.18;3.53;;;;;;;;;;5016869;28;20674;-61
2022/05/14 03:13:57;;;;;;;9.73;3.58;;;;;;;;;;5022061;28;20208;-62
2022/05/14 03:16:22;;;;;;;10.50;4.10;;;;;;;;;;5024799;28;20208;-62
2022/05/14 03:18:47;;;;;;;13.30;4.05;;;;;;;;;;5024675;28;20208;-61
2022/05/14 03:21:12;;;;;;;10.15;4.07;;;;;;;;;;5023697;28;20243;-61
2022/05/14 03:23:38;;;;;;;9.48;3.90;;;;;;;;;;5013227;28;20204;-61
2022/05/14 03:26:03;;;;;;;13.93;4.40;;;;;;;;;;5005056;28;20688;-61
2022/05/14 03:28:28;;;;;;;10.20;3.50;;;;;;;;;;5001471;28;20220;-61
2022/05/14 03:30:54;;;;;;;12.13;4.25;;;;;;;;;;5017195;28;20298;-61
2022/05/14 03:33:19;;;;;;;12.35;3.80;;;;;;;;;;5005081;28;20563;-61
2022/05/14 03:35:44;;;;;;;13.20;4.30;;;;;;;;;;5018417;28;20284;-61
2022/05/14 03:38:10;;;;;;;11.63;4.13;;;;;;;;;;5007873;28;20571;-61
2022/05/14 03:40:35;;;;;;;10.45;3.47;;;;;;;;;;5005118;28;20247;-61
2022/05/14 03:43:00;;;;;;;12.82;4.78;;;;;;;;;;5004439;28;20267;-61
2022/05/14 03:45:25;;;;;;;14.95;4.20;;;;;;;;;;5005389;28;20281;-61
2022/05/14 03:47:51;;;;;;;10.20;3.80;;;;;;;;;;5020480;28;20263;-61
2022/05/14 03:50:16;;;;;;;14.75;4.32;;;;;;;;;;5022526;28;20235;-61
2022/05/14 03:52:41;;;;;;;12.63;4.30;;;;;;;;;;5017234;28;20222;-61
2022/05/14 03:55:07;;;;;;;11.80;4.13;;;;;;;;;;5016208;28;20255;-61
2022/05/14 03:57:32;;;;;;;11.70;4.30;;;;;;;;;;5017004;28;20215;-61
2022/05/14 03:59:58;;;;;;;12.43;4.30;;;;;;;;;;5023674;28;20223;-61
2022/05/14 04:02:23;;;;;;;13.13;4.78;;;;;;;;;;5024573;28;20690;-61
2022/05/14 04:04:49;;;;;;;13.30;4.00;;;;;;;;;;5031362;28;20219;-61
2022/05/14 04:07:14;;;;;;;11.02;4.30;;;;;;;;;;5024023;28;20212;-61
2022/05/14 04:09:39;;;;;;;11.35;4.25;;;;;;;;;;5023047;28;20421;-60
2022/05/14 04:12:05;;;;;;;11.43;4.00;;;;;;;;;;5023673;28;20293;-61
2022/05/14 04:14:30;;;;;;;9.63;4.00;;;;;;;;;;5018828;28;20777;-61
2022/05/14 04:16:55;;;;;;;12.02;4.25;;;;;;;;;;5016403;28;20306;-61
2022/05/14 04:19:21;;;;;;;10.45;4.38;;;;;;;;;;5014510;28;20211;-61
2022/05/14 04:21:46;;;;;;;10.60;4.20;;;;;;;;;;5021717;28;20226;-62
2022/05/14 04:24:11;;;;;;;11.32;4.28;;;;;;;;;;5023651;28;20992;-61
2022/05/14 04:26:38;;;;;;;11.57;4.22;;;;;;;;;;5023448;28;20200;-62
2022/05/14 04:29:03;;;;;;;10.93;4.38;;;;;;;;;;5023373;28;20220;-61
2022/05/14 04:31:28;;;;;;;7.65;3.75;;;;;;;;;;5023137;28;20261;-61
2022/05/14 04:33:54;;;;;;;10.00;3.97;;;;;;;;;;5023680;28;20422;-61
2022/05/14 04:36:19;;;;;;;14.07;4.30;;;;;;;;;;5019557;28;20756;-62
2022/05/14 04:38:44;;;;;;;11.38;4.40;;;;;;;;;;5019373;28;20946;-62
2022/05/14 04:41:09;;;;;;;12.48;3.83;;;;;;;;;;5014993;28;20303;-62
2022/05/14 04:43:34;;;;;;;10.02;4.20;;;;;;;;;;5018959;28;20231;-63
2022/05/14 04:46:00;;;;;;;13.48;4.30;;;;;;;;;;5023006;28;20212;-62
2022/05/14 04:48:25;;;;;;;11.30;4.25;;;;;;;;;;5023197;28;20224;-62
2022/05/14 04:50:50;;;;;;;11.88;4.20;;;;;;;;;;5023467;28;20571;-62
2022/05/14 04:53:16;;;;;;;10.75;3.90;;;;;;;;;;5022473;28;20231;-63
2022/05/14 04:55:41;;;;;;;11.40;4.47;;;;;;;;;;5023515;28;20694;-63
2022/05/14 04:58:07;;;;;;;9.23;3.90;;;;;;;;;;5022752;28;20211;-62
2022/05/14 05:00:33;;;;;;;12.43;5.15;;;;;;;;;;5015229;28;20699;-63
2022/05/14 05:05:42;;;;;;;12.65;4.53;;;;;;;;;;5036079;28;20645;-63
2022/05/14 05:08:07;;;;;;;9.13;4.13;;;;;;;;;;5041426;28;20239;-63
2022/05/14 05:10:33;;;;;;;11.02;4.30;;;;;;;;;;5042934;28;20211;-63
2022/05/14 05:12:58;;;;;;;10.05;4.22;;;;;;;;;;5042703;28;20272;-62
2022/05/14 05:15:23;;;;;;;11.65;4.30;;;;;;;;;;5041397;28;20207;-63
2022/05/14 05:17:49;;;;;;;18.75;4.60;;;;;;;;;;5042013;28;20234;-63
2022/05/14 05:20:14;;;;;;;14.25;4.80;;;;;;;;;;5042015;28;20305;-62
2022/05/14 05:22:39;;;;;;;11.75;4.35;;;;;;;;;;5035395;28;20261;-62
2022/05/14 05:25:05;;;;;;;12.45;4.95;;;;;;;;;;5034828;28;20414;-62
2022/05/14 05:27:31;;;;;;;11.95;4.40;;;;;;;;;;5034597;28;20583;-63
2022/05/14 05:29:56;;;;;;;11.77;4.32;;;;;;;;;;5040824;28;20259;-62
2022/05/14 05:32:21;;;;;;;9.60;4.05;;;;;;;;;;5019998;28;20662;-62
2022/05/14 05:34:47;;;;;;;10.68;4.65;;;;;;;;;;5022302;28;20580;-63
2022/05/14 05:37:12;;;;;;;10.10;4.90;;;;;;;;;;5022447;28;20311;-63
2022/05/14 05:39:37;;;;;;;14.85;5.15;;;;;;;;;;5041940;28;20309;-63
2022/05/14 05:42:03;;;;;;;12.80;4.75;;;;;;;;;;5041043;28;20215;-63
2022/05/14 05:44:28;;;;;;;16.30;5.93;;;;;;;;;;5028580;28;20548;-62
2022/05/14 05:46:53;;;;;;;15.75;5.32;;;;;;;;;;5015118;28;20218;-62
2022/05/14 05:49:19;;;;;;;12.55;5.55;;;;;;;;;;5028432;28;20657;-62
2022/05/14 05:51:44;;;;;;;15.88;5.45;;;;;;;;;;5037664;28;20924;-63
2022/05/14 05:57:00;;;;;;;15.27;5.30;;;;;;;;;;5041948;28;20639;-63
2022/05/14 05:59:26;;;;;;;13.38;5.70;;;;;;;;;;5041236;28;20258;-63
2022/05/14 06:01:52;;;;;;;14.65;5.60;;;;;;;;;;5042059;28;20308;-63
2022/05/14 06:04:17;;;;;;;15.38;5.90;;;;;;;;;;5040406;28;20722;-62
2022/05/14 06:06:42;;;;;;;14.00;5.82;;;;;;;;;;5039445;28;20269;-63
2022/05/14 06:09:14;;;;;;;13.52;5.78;;;;;;;;;;5033655;28;20310;-63
2022/05/14 06:11:41;;;;;;;14.10;5.70;;;;;;;;;;5032666;28;20583;-63
2022/05/14 06:14:07;;;;;;;15.63;5.70;;;;;;;;;;5036746;28;20207;-63
2022/05/14 06:16:32;;;;;;;17.30;6.40;;;;;;;;;;5041603;28;20222;-63
2022/05/14 06:18:57;;;;;;;14.05;6.18;;;;;;;;;;5040644;28;20203;-63
2022/05/14 06:21:23;;;;;;;16.55;6.00;;;;;;;;;;5041352;28;20728;-62
2022/05/14 06:23:49;;;;;;;16.05;7.13;;;;;;;;;;5004020;28;20236;-63
2022/05/14 06:26:14;;;;;;;15.95;6.30;;;;;;;;;;5021651;28;20245;-63
2022/05/14 06:28:39;;;;;;;15.60;5.80;;;;;;;;;;5025856;28;20212;-63
2022/05/14 06:31:04;;;;;;;16.15;6.15;;;;;;;;;;5044407;28;20210;-63
2022/05/14 06:33:30;;;;;;;16.10;6.25;;;;;;;;;;5037684;28;20215;-64
2022/05/14 06:35:56;;;;;;;14.10;6.15;;;;;;;;;;5031401;28;20294;-63
2022/05/14 06:38:21;;;;;;;18.05;6.40;;;;;;;;;;5048712;28;20364;-63
2022/05/14 06:40:46;;;;;;;14.82;6.10;;;;;;;;;;5051468;28;20207;-63
2022/05/14 06:43:14;;;;;;;19.45;6.93;;;;;;;;;;5050763;28;20211;-63
2022/05/14 06:45:39;;;;;;;14.85;5.97;;;;;;;;;;5032652;28;20207;-63
2022/05/14 06:48:04;;;;;;;14.27;6.40;;;;;;;;;;5039411;28;20233;-63
2022/05/14 06:50:31;;;;;;;17.10;6.70;;;;;;;;;;5031130;28;20287;-63
2022/05/14 06:52:56;;;;;;;18.52;6.60;;;;;;;;;;5030562;28;20212;-64
2022/05/14 06:55:22;;;;;;;18.88;6.22;;;;;;;;;;5030904;28;20208;-63
2022/05/14 06:57:48;;;;;;;18.65;5.80;;;;;;;;;;5013594;28;20211;-63
2022/05/14 07:00:14;;;;;;;20.52;5.88;;;;;;;;;;5029867;28;20231;-63
2022/05/14 07:02:39;;;;;;;15.85;5.05;;;;;;;;;;5030680;28;20286;-63
2022/05/14 07:07:48;;;;;;;16.40;4.82;;;;;;;;;;5023661;28;20215;-64
2022/05/14 07:10:14;;;;;;;16.25;5.43;;;;;;;;;;5010969;28;20216;-63
2022/05/14 07:12:39;;;;;;;20.20;5.70;;;;;;;;;;5011157;28;20197;-63
2022/05/14 07:15:05;;;;;;;18.05;5.53;;;;;;;;;;5010135;28;20213;-63
2022/05/14 07:17:31;;;;;;;17.70;5.78;;;;;;;;;;5010978;28;20667;-63
2022/05/14 07:19:56;;;;;;;19.25;5.35;;;;;;;;;;5011132;28;20216;-63
2022/05/14 07:22:21;;;;;;;17.70;5.60;;;;;;;;;;5010096;28;20213;-63
2022/05/14 07:24:47;;;;;;;16.88;5.03;;;;;;;;;;5011563;28;20581;-64
2022/05/14 07:27:12;;;;;;;15.05;4.90;;;;;;;;;;5009765;28;20216;-63
2022/05/14 07:29:40;;;;;;;17.90;5.07;;;;;;;;;;5019939;28;20232;-63
2022/05/14 07:32:06;;;;;;;19.35;6.15;;;;;;;;;;5035996;28;20287;-63
2022/05/14 07:34:31;;;;;;;17.38;5.88;;;;;;;;;;5031829;28;20204;-63
2022/05/14 07:36:59;;;;;;;16.00;4.03;;;;;;;;;;5031099;28;20210;-63
2022/05/14 07:39:25;;;;;;;16.55;4.10;;;;;;;;;;5034621;28;20217;-63
2022/05/14 07:41:53;;;;;;;17.63;5.20;;;;;;;;;;5033224;28;20298;-63
2022/05/14 07:44:18;;;;;;;16.70;4.25;;;;;;;;;;5036278;28;20219;-63
2022/05/14 07:46:44;;;;;;;15.93;4.35;;;;;;;;;;5036440;28;20238;-64
2022/05/14 07:49:10;;;;;;;17.10;4.97;;;;;;;;;;5015647;28;20224;-63
2022/05/14 07:51:35;;;;;;;15.27;5.07;;;;;;;;;;5014611;28;20236;-64
2022/05/14 07:54:00;;;;;;;15.00;5.97;;;;;;;;;;5029335;28;20235;-63
2022/05/14 07:56:26;;;;;;;23.08;6.35;;;;;;;;;;5013610;28;20208;-64
2022/05/14 07:58:51;;;;;;;15.73;6.70;;;;;;;;;;5013844;28;20224;-63
2022/05/14 08:01:16;;;;;;;17.30;6.22;;;;;;;;;;5013832;28;20224;-63
2022/05/14 08:03:42;;;;;;;16.48;5.90;;;;;;;;;;5013356;28;20228;-64
2022/05/14 08:06:10;;;;;;;14.93;6.22;;;;;;;;;;5013859;28;20228;-63
2022/05/14 08:08:36;;;;;;;18.00;6.30;;;;;;;;;;5014338;28;20311;-64
2022/05/14 08:11:01;;;;;;;19.60;6.97;;;;;;;;;;5012962;28;20320;-64
2022/05/14 08:13:26;;;;;;;18.60;7.13;;;;;;;;;;5013736;28;20212;-64
2022/05/14 08:15:52;;;;;;;18.05;6.07;;;;;;;;;;5014150;28;20213;-64
2022/05/14 08:18:17;;;;;;;18.25;6.22;;;;;;;;;;5012649;28;20642;-64
2022/05/14 08:20:43;;;;;;;22.42;6.03;;;;;;;;;;5013963;28;20223;-64
2022/05/14 08:25:52;;;;;;;17.88;6.38;;;;;;;;;;5013629;28;20618;-63
2022/05/14 08:28:18;;;;;;;17.33;6.45;;;;;;;;;;5013031;28;20224;-63
2022/05/14 08:30:43;;;;;;;21.25;6.85;;;;;;;;;;5013013;28;20235;-64
2022/05/14 08:33:08;;;;;;;18.05;5.35;;;;;;;;;;5024588;28;20609;-64
2022/05/14 08:35:34;;;;;;;18.38;5.88;;;;;;;;;;5053524;28;20211;-63
2022/05/14 08:37:59;;;;;;;15.80;5.88;;;;;;;;;;5052740;28;20260;-64
2022/05/14 08:40:27;;;;;;;17.35;5.63;;;;;;;;;;5034667;28;20745;-64
2022/05/14 08:42:53;;;;;;;16.83;6.45;;;;;;;;;;5048410;28;20678;-63
2022/05/14 08:45:19;;;;;;;20.83;6.20;;;;;;;;;;5040191;28;20230;-63
2022/05/14 08:47:48;;;;;;;17.13;5.40;;;;;;;;;;5039144;28;20218;-64
2022/05/14 08:50:14;;;;;;;20.73;5.70;;;;;;;;;;5052845;28;20690;-64
2022/05/14 08:52:39;;;;;;;22.05;5.40;;;;;;;;;;5051493;28;20282;-63
2022/05/14 08:55:06;;;;;;;21.55;5.35;;;;;;;;;;5051989;28;20581;-64
2022/05/14 08:57:47;;;;;;;18.60;5.13;;;;;;;;;;5034980;28;20222;-64
2022/05/14 09:00:13;;;;;;;15.40;5.25;;;;;;;;;;5039041;28;20242;-63
2022/05/14 09:02:44;;;;;;;16.55;4.47;;;;;;;;;;5015198;28;20212;-63
2022/05/14 09:05:12;;;;;;;15.93;5.60;;;;;;;;;;5032504;28;20208;-63
2022/05/14 09:07:37;;;;;;;17.23;5.20;;;;;;;;;;5013941;28;20612;-64
2022/05/14 09:10:03;;;;;;;17.17;5.25;;;;;;;;;;5032205;28;20219;-64
2022/05/14 09:12:29;;;;;;;17.85;5.00;;;;;;;;;;5032675;28;20208;-64
2022/05/14 09:14:56;;;;;;;14.80;5.10;;;;;;;;;;5032034;28;20204;-64
2022/05/14 09:17:22;;;;;;;19.08;5.35;;;;;;;;;;5032400;28;20603;-64
2022/05/14 09:19:48;;;;;;;17.15;5.07;;;;;;;;;;5032011;28;20219;-64
2022/05/14 09:22:17;;;;;;;12.38;4.28;;;;;;;;;;5031580;28;20227;-64
2022/05/14 09:24:45;;;;;;;12.40;4.03;;;;;;;;;;5032320;28;20566;-63
2022/05/14 09:27:11;;;;;;;17.30;4.63;;;;;;;;;;5013457;28;20316;-64
2022/05/14 09:29:39;;;;;;;16.00;4.45;;;;;;;;;;5014876;28;20220;-63
2022/05/14 09:32:06;;;;;;;13.90;4.88;;;;;;;;;;5013261;28;20263;-63
2022/05/14 09:34:32;;;;;;;17.20;4.68;;;;;;;;;;5011850;28;20274;-64
2022/05/14 09:37:04;;;;;;;16.75;4.80;;;;;;;;;;5012167;28;20722;-64
2022/05/14 09:39:29;;;;;;;16.05;4.60;;;;;;;;;;5015139;28;20207;-64
2022/05/14 09:41:56;;;;;;;18.27;5.40;;;;;;;;;;5013223;28;20463;-64
2022/05/14 09:44:28;;;;;;;14.60;4.70;;;;;;;;;;5011990;28;20208;-64
2022/05/14 09:47:05;;;;;;;18.38;5.20;;;;;;;;;;5013480;28;20212;-63
2022/05/14 09:49:31;;;;;;;15.13;4.22;;;;;;;;;;5030891;28;20223;-64
2022/05/14 09:52:01;;;;;;;14.27;4.05;;;;;;;;;;5032048;28;20215;-63
2022/05/14 09:54:29;;;;;;;18.08;4.75;;;;;;;;;;5031481;28;20745;-63
2022/05/14 09:57:10;;;;;;;18.15;4.68;;;;;;;;;;5031465;28;20299;-64
2022/05/14 09:59:42;;;;;;;12.50;4.70;;;;;;;;;;5038793;28;20234;-63
2022/05/14 10:02:09;;;;;;;16.00;4.68;;;;;;;;;;5050569;28;20218;-64
2022/05/14 10:04:43;;;;;;;13.57;3.53;;;;;;;;;;5051280;28;20257;-63
2022/05/14 10:07:11;;;;;;;15.57;3.63;;;;;;;;;;5051342;28;20207;-63
2022/05/14 10:09:42;;;;;;;17.13;4.15;;;;;;;;;;5033062;28;20227;-64
2022/05/14 10:12:17;;;;;;;16.40;4.63;;;;;;;;;;5033363;28;20203;-64
2022/05/14 10:14:42;;;;;;;14.30;3.80;;;;;;;;;;5051480;28;20219;-64
2022/05/14 10:17:26;;;;;;;19.02;4.15;;;;;;;;;;5050196;28;20207;-64
2022/05/14 10:20:01;;;;;;;15.73;4.90;;;;;;;;;;5051493;28;20207;-63
2022/05/14 10:26:44;;;;;;;15.77;4.50;;;;;;;;;;5031422;28;20215;-63
2022/05/14 10:28:04;;;;;;;15.00;4.05;;;;;;;;;;5031462;28;20286;-64
2022/05/14 10:30:34;;;;;;;14.23;4.00;;;;;;;;;;5012728;28;20212;-63
2022/05/14 10:33:01;;;;;;;16.10;4.25;;;;;;;;;;5009429;28;20259;-63
2022/05/14 10:35:28;;;;;;;14.63;4.13;;;;;;;;;;5011156;28;20223;-63
2022/05/14 10:37:55;;;;;;;16.98;4.60;;;;;;;;;;5010722;28;20200;-64
2022/05/14 10:40:22;;;;;;;19.30;4.05;;;;;;;;;;5016901;28;20676;-64
2022/05/14 10:42:53;;;;;;;16.05;4.63;;;;;;;;;;5011772;28;20212;-63
2022/05/14 10:45:20;;;;;;;13.05;3.83;;;;;;;;;;5010872;28;20731;-63
2022/05/14 10:47:46;;;;;;;17.23;3.90;;;;;;;;;;5019204;28;20223;-63
2022/05/14 10:50:16;;;;;;;12.18;4.03;;;;;;;;;;5030519;28;20218;-63
2022/05/14 10:52:42;;;;;;;14.27;4.38;;;;;;;;;;5030243;28;20200;-63
2022/05/14 10:55:14;;;;;;;13.40;3.60;;;;;;;;;;5045836;28;20262;-63
2022/05/14 10:57:40;;;;;;;16.90;3.60;;;;;;;;;;5031399;28;20211;-63
2022/05/14 11:00:11;;;;;;;13.43;4.13;;;;;;;;;;5029667;28;20297;-63
2022/05/14 11:02:38;;;;;;;17.73;4.63;;;;;;;;;;5046421;28;20258;-63
2022/05/14 11:05:05;;;;;;;21.77;4.60;;;;;;;;;;5045719;28;20216;-63
2022/05/14 11:07:31;;;;;;;15.57;4.07;;;;;;;;;;5030241;28;20215;-64
2022/05/14 11:10:16;;;;;;;15.02;3.70;;;;;;;;;;5030981;28;20266;-63
2022/05/14 11:12:41;;;;;;;15.18;3.90;;;;;;;;;;5030086;28;20277;-63
2022/05/14 11:15:18;;;;;;;16.83;3.92;;;;;;;;;;5030568;28;20682;-63
2022/05/14 11:17:43;;;;;;;16.70;4.18;;;;;;;;;;5033779;28;20242;-63
2022/05/14 11:20:10;;;;;;;10.35;3.45;;;;;;;;;;5033351;28;20236;-64
2022/05/14 11:22:38;;;;;;;14.02;4.30;;;;;;;;;;5035082;28;20926;-63
2022/05/14 11:25:23;;;;;;;17.17;4.53;;;;;;;;;;5016239;28;20299;-63
2022/05/14 11:27:54;;;;;;;12.40;3.97;;;;;;;;;;5033655;28;20265;-64
2022/05/14 11:30:27;;;;;;;17.50;3.80;;;;;;;;;;5033960;28;20229;-64
2022/05/14 11:32:52;;;;;;;13.13;4.50;;;;;;;;;;5033592;28;20243;-63
2022/05/14 11:35:17;;;;;;;11.82;3.65;;;;;;;;;;5015843;28;20231;-63
2022/05/14 11:37:44;;;;;;;13.35;3.95;;;;;;;;;;5017128;28;20558;-63
2022/05/14 11:40:19;;;;;;;14.93;3.35;;;;;;;;;;5038894;28;20273;-64
2022/05/14 11:42:44;;;;;;;12.07;3.65;;;;;;;;;;5034788;28;20203;-64
2022/05/14 11:45:16;;;;;;;13.77;3.45;;;;;;;;;;5033876;28;20258;-64
2022/05/14 11:47:53;;;;;;;12.82;3.72;;;;;;;;;;5030338;28;20290;-63
2022/05/14 11:50:19;;;;;;;11.70;4.18;;;;;;;;;;5033906;28;20589;-63
2022/05/14 11:52:45;;;;;;;13.98;4.00;;;;;;;;;;5022197;28;20291;-64
2022/05/14 11:55:12;;;;;;;15.13;3.65;;;;;;;;;;5032421;28;20216;-63
2022/05/14 11:57:39;;;;;;;13.52;3.67;;;;;;;;;;5033991;28;20223;-63
2022/05/14 12:00:06;;;;;;;13.68;3.85;;;;;;;;;;5015988;28;20223;-63
2022/05/14 12:02:35;;;;;;;13.40;3.42;;;;;;;;;;5033480;28;20675;-63
2022/05/14 12:05:00;;;;;;;15.20;4.10;;;;;;;;;;5016368;28;20223;-64
2022/05/14 12:07:33;;;;;;;12.93;3.50;;;;;;;;;;5033204;28;20619;-64
2022/05/14 12:10:12;;;;;;;11.35;3.40;;;;;;;;;;5015205;28;20227;-64
2022/05/14 12:12:42;;;;;;;14.45;3.60;;;;;;;;;;5032539;28;20674;-64
2022/05/14 12:15:09;;;;;;;17.70;4.38;;;;;;;;;;5032556;28;20208;-64
2022/05/14 12:17:34;;;;;;;15.73;4.32;;;;;;;;;;5031912;28;20232;-64
2022/05/14 12:19:59;;;;;;;13.45;3.20;;;;;;;;;;5033672;28;20690;-64
2022/05/14 12:22:29;;;;;;;14.82;4.45;;;;;;;;;;5033310;28;20235;-63
2022/05/14 12:24:56;;;;;;;11.18;3.53;;;;;;;;;;5033386;28;20216;-64
2022/05/14 12:27:21;;;;;;;12.73;3.85;;;;;;;;;;5033185;28;20210;-64
2022/05/14 12:29:59;;;;;;;11.95;3.70;;;;;;;;;;5033075;28;20216;-63
2022/05/14 12:35:15;;;;;;;16.38;3.97;;;;;;;;;;4997424;28;20427;-63
2022/05/14 12:37:41;;;;;;;12.73;3.70;;;;;;;;;;4999453;28;20212;-63
2022/05/14 12:40:06;;;;;;;16.33;4.07;;;;;;;;;;5001330;28;20283;-63
2022/05/14 12:42:34;;;;;;;14.82;4.03;;;;;;;;;;5008071;28;20223;-63
2022/05/14 12:44:59;;;;;;;15.45;3.88;;;;;;;;;;4989800;28;20208;-63
2022/05/14 12:47:27;;;;;;;13.70;3.25;;;;;;;;;;5007174;28;20298;-64
2022/05/14 12:49:52;;;;;;;11.82;3.10;;;;;;;;;;5007357;28;20228;-64
2022/05/14 12:52:20;;;;;;;13.52;3.92;;;;;;;;;;5006435;28;20674;-64
2022/05/14 12:54:51;;;;;;;17.63;3.83;;;;;;;;;;5007491;28;20690;-63
2022/05/14 12:57:17;;;;;;;18.35;3.90;;;;;;;;;;4999636;28;20722;-63
2022/05/14 12:59:42;;;;;;;16.05;3.47;;;;;;;;;;5016127;28;20556;-64
2022/05/14 13:02:11;;;;;;;17.25;3.70;;;;;;;;;;5019454;28;20261;-64
2022/05/14 13:04:38;;;;;;;17.92;3.40;;;;;;;;;;4996803;28;20248;-63
2022/05/14 13:07:03;;;;;;;14.35;3.40;;;;;;;;;;4988857;28;20566;-64
2022/05/14 13:09:29;;;;;;;16.33;3.90;;;;;;;;;;4989800;28;20227;-63
2022/05/14 13:11:54;;;;;;;12.93;3.95;;;;;;;;;;5006276;28;20664;-63
2022/05/14 13:14:21;;;;;;;15.15;4.40;;;;;;;;;;5007160;28;20216;-64
2022/05/14 13:16:54;;;;;;;15.15;4.18;;;;;;;;;;5006920;28;20675;-64
2022/05/14 13:19:26;;;;;;;13.85;3.97;;;;;;;;;;5000407;28;20657;-62
2022/05/14 13:21:52;;;;;;;16.10;3.50;;;;;;;;;;5003979;28;20251;-62
2022/05/14 13:24:20;;;;;;;13.73;4.03;;;;;;;;;;4999040;28;20572;-63
2022/05/14 13:26:46;;;;;;;10.50;3.83;;;;;;;;;;4987090;28;20482;-62
2022/05/14 13:29:21;;;;;;;12.77;3.78;;;;;;;;;;5006410;28;20228;-63
2022/05/14 13:31:48;;;;;;;14.30;3.90;;;;;;;;;;5007786;28;20266;-63
2022/05/14 13:37:07;;;;;;;14.57;4.30;;;;;;;;;;5017228;28;20580;-63
2022/05/14 13:39:33;;;;;;;14.00;4.20;;;;;;;;;;5031391;28;20312;-63
2022/05/14 13:42:00;;;;;;;12.68;3.75;;;;;;;;;;5013112;28;20203;-63
2022/05/14 13:44:25;;;;;;;13.45;3.58;;;;;;;;;;5014022;28;20204;-63
2022/05/14 13:46:52;;;;;;;13.18;3.33;;;;;;;;;;5032184;28;20830;-62
2022/05/14 13:49:19;;;;;;;15.00;3.97;;;;;;;;;;5031144;28;20230;-63
2022/05/14 13:51:49;;;;;;;12.25;3.22;;;;;;;;;;5031903;28;20240;-62
2022/05/14 13:54:17;;;;;;;12.52;3.38;;;;;;;;;;5030666;28;20208;-62
2022/05/14 13:56:45;;;;;;;14.93;3.88;;;;;;;;;;5031510;28;20295;-62
2022/05/14 13:59:22;;;;;;;14.32;3.25;;;;;;;;;;5035009;28;20243;-62
2022/05/14 14:01:48;;;;;;;14.73;3.53;;;;;;;;;;5051049;28;20210;-63
2022/05/14 14:04:14;;;;;;;12.15;3.40;;;;;;;;;;5051332;28;20686;-63
2022/05/14 14:06:39;;;;;;;16.13;4.13;;;;;;;;;;5033696;28;20839;-63
2022/05/14 14:09:05;;;;;;;15.02;3.80;;;;;;;;;;5014041;28;20256;-62
2022/05/14 14:11:30;;;;;;;12.30;3.28;;;;;;;;;;5031670;28;20207;-62
2022/05/14 14:13:55;;;;;;;13.73;3.15;;;;;;;;;;5031626;28;20222;-63
2022/05/14 14:16:20;;;;;;;13.52;3.20;;;;;;;;;;5013306;28;20242;-62
2022/05/14 14:18:47;;;;;;;14.48;3.60;;;;;;;;;;5031460;28;20746;-63
2022/05/14 14:21:12;;;;;;;16.85;3.38;;;;;;;;;;5031059;28;20565;-63
2022/05/14 14:23:38;;;;;;;10.73;2.80;;;;;;;;;;5030642;28;20254;-62
2022/05/14 14:26:04;;;;;;;15.68;3.58;;;;;;;;;;5031067;28;20203;-63
2022/05/14 14:28:29;;;;;;;13.60;3.25;;;;;;;;;;5030985;28;20219;-62
2022/05/14 14:30:55;;;;;;;15.13;3.72;;;;;;;;;;5030856;28;20302;-62
2022/05/14 14:33:20;;;;;;;11.85;3.42;;;;;;;;;;5020574;28;20231;-62
2022/05/14 14:35:45;;;;;;;12.68;3.17;;;;;;;;;;5011395;28;20219;-62
2022/05/14 14:38:11;;;;;;;11.73;2.83;;;;;;;;;;5010292;28;20536;-62
2022/05/14 14:40:36;;;;;;;15.00;3.60;;;;;;;;;;5011196;28;20583;-63
2022/05/14 14:43:02;;;;;;;13.13;3.58;;;;;;;;;;5010893;28;20224;-63
2022/05/14 14:45:27;;;;;;;15.30;3.50;;;;;;;;;;5010776;28;20209;-62
2022/05/14 14:47:52;;;;;;;14.02;4.15;;;;;;;;;;5020169;28;20222;-62
2022/05/14 14:50:18;;;;;;;16.73;3.55;;;;;;;;;;5029928;28;20210;-62